sensor_id;sensor_type;location;lat;lon;timestamp;pressure;altitude;pressure_sealevel;temperature;humidity
70445;BME280;57902;49.638;11.070;2023-11-22T00:02:17;98667.81;;;3.07;100.00
70445;BME280;57902;49.638;11.070;2023-11-22T00:04:44;98666.88;;;2.96;100.00
70445;BME280;57902;49.638;11.070;2023-11-22T00:07:10;98666.94;;;3.04;100.00
70445;BME280;57902;49.638;11.070;2023-11-22T00:09:37;98667.81;;;3.09;100.00
70445;BME280;57902;49.638;11.070;2023-11-22T00:12:04;98668.63;;;3.05;100.00
70445;BME280;57902;49.638;11.070;2023-11-22T00:14:31;98677.06;;;2.97;100.00
70445;BME280;57902;49.638;11.070;2023-11-22T00:16:57;98674.53;;;3.01;100.00
70445;BME280;57902;49.638;11.070;2023-11-22T00:19:25;98684.66;;;2.88;100.00
70445;BME280;57902;49.638;11.070;2023-11-22T00:21:51;98684.63;;;2.85;100.00
70445;BME280;57902;49.638;11.070;2023-11-22T00:24:18;98686.38;;;2.89;100.00
70445;BME280;57902;49.638;11.070;2023-11-22T00:26:44;98682.09;;;2.85;100.00
70445;BME280;57902;49.638;11.070;2023-11-22T00:29:11;98678.59;;;2.74;100.00
70445;BME280;57902;49.638;11.070;2023-11-22T00:31:38;98687.09;;;2.76;100.00
70445;BME280;57902;49.638;11.070;2023-11-22T00:34:05;98694.63;;;2.63;100.00
70445;BME280;57902;49.638;11.070;2023-11-22T00:36:32;98694.56;;;2.56;100.00
70445;BME280;57902;49.638;11.070;2023-11-22T00:38:59;98696.25;;;2.57;100.00
70445;BME280;57902;49.638;11.070;2023-11-22T00:41:30;98695.50;;;2.66;100.00
70445;BME280;57902;49.638;11.070;2023-11-22T00:43:57;98698.75;;;2.52;100.00
70445;BME280;57902;49.638;11.070;2023-11-22T00:46:24;98710.63;;;2.50;100.00
70445;BME280;57902;49.638;11.070;2023-11-22T00:48:51;98710.66;;;2.53;100.00
70445;BME280;57902;49.638;11.070;2023-11-22T00:51:17;98710.69;;;2.56;100.00
70445;BME280;57902;49.638;11.070;2023-11-22T00:53:44;98716.56;;;2.52;100.00
70445;BME280;57902;49.638;11.070;2023-11-22T00:56:10;98721.59;;;2.43;100.00
70445;BME280;57902;49.638;11.070;2023-11-22T00:58:37;98724.06;;;2.37;100.00
70445;BME280;57902;49.638;11.070;2023-11-22T01:01:03;98723.16;;;2.33;100.00
70445;BME280;57902;49.638;11.070;2023-11-22T01:03:30;98717.25;;;2.33;100.00
70445;BME280;57902;49.638;11.070;2023-11-22T01:05:57;98722.31;;;2.33;100.00
70445;BME280;57902;49.638;11.070;2023-11-22T01:08:24;98719.78;;;2.33;100.00
70445;BME280;57902;49.638;11.070;2023-11-22T01:10:50;98731.69;;;2.34;100.00
70445;BME280;57902;49.638;11.070;2023-11-22T01:13:17;98721.50;;;2.32;100.00
70445;BME280;57902;49.638;11.070;2023-11-22T01:15:44;98718.94;;;2.31;100.00
70445;BME280;57902;49.638;11.070;2023-11-22T01:18:11;98728.41;;;2.44;100.00
70445;BME280;57902;49.638;11.070;2023-11-22T01:20:37;98732.53;;;2.36;100.00
70445;BME280;57902;49.638;11.070;2023-11-22T01:23:04;98737.66;;;2.39;100.00
70445;BME280;57902;49.638;11.070;2023-11-22T01:25:30;98745.28;;;2.39;100.00
70445;BME280;57902;49.638;11.070;2023-11-22T01:27:57;98739.34;;;2.38;100.00
70445;BME280;57902;49.638;11.070;2023-11-22T01:30:23;98735.94;;;2.38;100.00
70445;BME280;57902;49.638;11.070;2023-11-22T01:32:50;98745.22;;;2.33;100.00
70445;BME280;57902;49.638;11.070;2023-11-22T01:35:16;98752.03;;;2.34;100.00
70445;BME280;57902;49.638;11.070;2023-11-22T01:37:43;98751.06;;;2.25;100.00
70445;BME280;57902;49.638;11.070;2023-11-22T01:40:10;98752.88;;;2.36;100.00
70445;BME280;57902;49.638;11.070;2023-11-22T01:42:37;98736.84;;;2.41;100.00
70445;BME280;57902;49.638;11.070;2023-11-22T01:45:07;98737.69;;;2.42;100.00
70445;BME280;57902;49.638;11.070;2023-11-22T01:47:34;98742.78;;;2.42;100.00
70445;BME280;57902;49.638;11.070;2023-11-22T01:50:01;98749.59;;;2.46;100.00
70445;BME280;57902;49.638;11.070;2023-11-22T01:52:28;98752.34;;;2.65;99.39
70445;BME280;57902;49.638;11.070;2023-11-22T01:54:55;98749.63;;;2.49;100.00
70445;BME280;57902;49.638;11.070;2023-11-22T01:57:21;98752.22;;;2.54;100.00
70445;BME280;57902;49.638;11.070;2023-11-22T01:59:48;98756.44;;;2.50;100.00
70445;BME280;57902;49.638;11.070;2023-11-22T02:02:14;98761.63;;;2.61;99.96
70445;BME280;57902;49.638;11.070;2023-11-22T02:04:41;98754.88;;;2.65;99.67
70445;BME280;57902;49.638;11.070;2023-11-22T02:07:07;98757.16;;;2.37;100.00
70445;BME280;57902;49.638;11.070;2023-11-22T02:09:34;98757.25;;;2.49;100.00
70445;BME280;57902;49.638;11.070;2023-11-22T02:12:00;98758.94;;;2.44;99.31
70445;BME280;57902;49.638;11.070;2023-11-22T02:14:27;98766.41;;;2.32;100.00
70445;BME280;57902;49.638;11.070;2023-11-22T02:16:54;98778.34;;;2.36;100.00
70445;BME280;57902;49.638;11.070;2023-11-22T02:19:20;98774.00;;;2.27;100.00
70445;BME280;57902;49.638;11.070;2023-11-22T02:21:47;98788.53;;;2.39;100.00
70445;BME280;57902;49.638;11.070;2023-11-22T02:24:13;98787.38;;;2.10;100.00
70445;BME280;57902;49.638;11.070;2023-11-22T02:26:44;98796.47;;;1.95;100.00
70445;BME280;57902;49.638;11.070;2023-11-22T02:29:12;98800.75;;;1.96;100.00
70445;BME280;57902;49.638;11.070;2023-11-22T02:31:42;98791.41;;;1.96;100.00
70445;BME280;57902;49.638;11.070;2023-11-22T02:34:09;98794.81;;;1.97;100.00
70445;BME280;57902;49.638;11.070;2023-11-22T02:36:36;98802.41;;;1.95;100.00
70445;BME280;57902;49.638;11.070;2023-11-22T02:39:03;98792.38;;;2.03;100.00
70445;BME280;57902;49.638;11.070;2023-11-22T02:41:29;98794.88;;;2.01;100.00
70445;BME280;57902;49.638;11.070;2023-11-22T02:43:56;98786.44;;;2.05;100.00
70445;BME280;57902;49.638;11.070;2023-11-22T02:46:23;98781.25;;;1.98;100.00
70445;BME280;57902;49.638;11.070;2023-11-22T02:48:50;98787.25;;;2.00;100.00
70445;BME280;57902;49.638;11.070;2023-11-22T02:51:16;98793.09;;;1.94;100.00
70445;BME280;57902;49.638;11.070;2023-11-22T02:53:43;98795.69;;;1.99;100.00
70445;BME280;57902;49.638;11.070;2023-11-22T02:56:12;98797.28;;;1.90;100.00
70445;BME280;57902;49.638;11.070;2023-11-22T02:58:38;98806.53;;;1.85;100.00
70445;BME280;57902;49.638;11.070;2023-11-22T03:01:05;98809.13;;;1.90;100.00
70445;BME280;57902;49.638;11.070;2023-11-22T03:03:31;98808.34;;;1.92;100.00
70445;BME280;57902;49.638;11.070;2023-11-22T03:05:58;98805.88;;;1.99;100.00
70445;BME280;57902;49.638;11.070;2023-11-22T03:08:24;98798.25;;;1.99;100.00
70445;BME280;57902;49.638;11.070;2023-11-22T03:11:05;98803.34;;;2.00;100.00
70445;BME280;57902;49.638;11.070;2023-11-22T03:13:31;98811.00;;;2.02;100.00
70445;BME280;57902;49.638;11.070;2023-11-22T03:15:58;98814.31;;;1.96;100.00
70445;BME280;57902;49.638;11.070;2023-11-22T03:18:24;98816.06;;;2.00;100.00
70445;BME280;57902;49.638;11.070;2023-11-22T03:20:52;98823.63;;;1.96;100.00
70445;BME280;57902;49.638;11.070;2023-11-22T03:23:21;98825.31;;;1.97;100.00
70445;BME280;57902;49.638;11.070;2023-11-22T03:25:47;98832.81;;;1.87;100.00
70445;BME280;57902;49.638;11.070;2023-11-22T03:28:14;98837.09;;;1.88;100.00
70445;BME280;57902;49.638;11.070;2023-11-22T03:30:41;98833.56;;;1.79;100.00
70445;BME280;57902;49.638;11.070;2023-11-22T03:33:08;98830.25;;;1.84;100.00
70445;BME280;57902;49.638;11.070;2023-11-22T03:35:34;98822.88;;;2.03;100.00
70445;BME280;57902;49.638;11.070;2023-11-22T03:38:01;98828.81;;;2.05;100.00
70445;BME280;57902;49.638;11.070;2023-11-22T03:40:28;98826.16;;;1.96;100.00
70445;BME280;57902;49.638;11.070;2023-11-22T03:42:54;98838.84;;;1.92;100.00
70445;BME280;57902;49.638;11.070;2023-11-22T03:45:21;98843.13;;;1.97;100.00
70445;BME280;57902;49.638;11.070;2023-11-22T03:47:47;98851.44;;;1.86;100.00
70445;BME280;57902;49.638;11.070;2023-11-22T03:50:14;98854.06;;;1.89;100.00
70445;BME280;57902;49.638;11.070;2023-11-22T03:52:41;98848.84;;;1.83;100.00
70445;BME280;57902;49.638;11.070;2023-11-22T03:55:08;98850.47;;;1.77;100.00
70445;BME280;57902;49.638;11.070;2023-11-22T03:57:34;98867.56;;;1.85;100.00
70445;BME280;57902;49.638;11.070;2023-11-22T04:00:01;98874.41;;;1.89;100.00
70445;BME280;57902;49.638;11.070;2023-11-22T04:02:28;98865.88;;;1.87;100.00
70445;BME280;57902;49.638;11.070;2023-11-22T04:04:55;98876.69;;;1.74;100.00
70445;BME280;57902;49.638;11.070;2023-11-22T04:07:23;98883.53;;;1.77;100.00
70445;BME280;57902;49.638;11.070;2023-11-22T04:09:50;98888.72;;;1.84;100.00
70445;BME280;57902;49.638;11.070;2023-11-22T04:12:16;98895.38;;;1.78;100.00
70445;BME280;57902;49.638;11.070;2023-11-22T04:14:43;98900.47;;;1.78;100.00
70445;BME280;57902;49.638;11.070;2023-11-22T04:17:09;98904.75;;;1.80;100.00
70445;BME280;57902;49.638;11.070;2023-11-22T04:19:37;98899.41;;;1.63;100.00
70445;BME280;57902;49.638;11.070;2023-11-22T04:22:03;98899.47;;;1.68;100.00
70445;BME280;57902;49.638;11.070;2023-11-22T04:24:30;98905.66;;;1.84;100.00
70445;BME280;57902;49.638;11.070;2023-11-22T04:26:56;98905.81;;;1.95;100.00
70445;BME280;57902;49.638;11.070;2023-11-22T04:29:23;98909.13;;;1.90;100.00
70445;BME280;57902;49.638;11.070;2023-11-22T04:31:49;98913.44;;;1.95;100.00
70445;BME280;57902;49.638;11.070;2023-11-22T04:34:16;98912.69;;;2.00;100.00
70445;BME280;57902;49.638;11.070;2023-11-22T04:36:42;98916.00;;;1.95;100.00
70445;BME280;57902;49.638;11.070;2023-11-22T04:39:09;98924.28;;;1.83;100.00
70445;BME280;57902;49.638;11.070;2023-11-22T04:41:36;98925.84;;;1.76;100.00
70445;BME280;57902;49.638;11.070;2023-11-22T04:44:03;98925.75;;;1.68;100.00
70445;BME280;57902;49.638;11.070;2023-11-22T04:46:30;98929.97;;;1.68;100.00
70445;BME280;57902;49.638;11.070;2023-11-22T04:48:57;98934.09;;;1.61;100.00
70445;BME280;57902;49.638;11.070;2023-11-22T04:51:24;98939.88;;;1.52;100.00
70445;BME280;57902;49.638;11.070;2023-11-22T04:53:50;98935.63;;;1.51;100.00
70445;BME280;57902;49.638;11.070;2023-11-22T04:56:17;98941.53;;;1.50;100.00
70445;BME280;57902;49.638;11.070;2023-11-22T04:58:44;98946.63;;;1.50;100.00
70445;BME280;57902;49.638;11.070;2023-11-22T05:01:10;98948.88;;;1.84;100.00
70445;BME280;57902;49.638;11.070;2023-11-22T05:03:37;98951.59;;;1.95;100.00
70445;BME280;57902;49.638;11.070;2023-11-22T05:06:04;98941.97;;;1.75;100.00
70445;BME280;57902;49.638;11.070;2023-11-22T05:08:31;98936.25;;;1.88;99.50
70445;BME280;57902;49.638;11.070;2023-11-22T05:10:57;98942.66;;;1.66;100.00
70445;BME280;57902;49.638;11.070;2023-11-22T05:13:24;98950.69;;;1.40;100.00
70445;BME280;57902;49.638;11.070;2023-11-22T05:15:50;98964.22;;;1.39;100.00
70445;BME280;57902;49.638;11.070;2023-11-22T05:18:17;98955.00;;;1.46;100.00
70445;BME280;57902;49.638;11.070;2023-11-22T05:20:43;98957.38;;;1.35;100.00
70445;BME280;57902;49.638;11.070;2023-11-22T05:23:10;98956.44;;;1.32;100.00
70445;BME280;57902;49.638;11.070;2023-11-22T05:25:37;98964.75;;;1.23;100.00
70445;BME280;57902;49.638;11.070;2023-11-22T05:28:04;98963.09;;;1.24;100.00
70445;BME280;57902;49.638;11.070;2023-11-22T05:30:30;98954.59;;;1.23;100.00
70445;BME280;57902;49.638;11.070;2023-11-22T05:32:57;98966.34;;;1.16;100.00
70445;BME280;57902;49.638;11.070;2023-11-22T05:35:23;98971.75;;;1.35;100.00
70445;BME280;57902;49.638;11.070;2023-11-22T05:37:50;98976.88;;;1.38;100.00
70445;BME280;57902;49.638;11.070;2023-11-22T05:40:16;98974.41;;;1.41;100.00
70445;BME280;57902;49.638;11.070;2023-11-22T05:42:43;98973.28;;;1.25;100.00
70445;BME280;57902;49.638;11.070;2023-11-22T05:45:10;98984.69;;;1.47;100.00
70445;BME280;57902;49.638;11.070;2023-11-22T05:47:37;98986.31;;;1.45;100.00
70445;BME280;57902;49.638;11.070;2023-11-22T05:50:05;98993.50;;;1.20;100.00
70445;BME280;57902;49.638;11.070;2023-11-22T05:52:32;99001.91;;;1.18;100.00
70445;BME280;57902;49.638;11.070;2023-11-22T05:54:59;98996.81;;;1.16;100.00
70445;BME280;57902;49.638;11.070;2023-11-22T05:57:30;98998.63;;;1.22;100.00
70445;BME280;57902;49.638;11.070;2023-11-22T05:59:57;99006.75;;;1.07;100.00
70445;BME280;57902;49.638;11.070;2023-11-22T06:02:23;99005.13;;;1.09;100.00
70445;BME280;57902;49.638;11.070;2023-11-22T06:04:50;99007.75;;;1.14;100.00
70445;BME280;57902;49.638;11.070;2023-11-22T06:07:17;99020.66;;;1.25;100.00
70445;BME280;57902;49.638;11.070;2023-11-22T06:09:43;99032.41;;;1.19;100.00
70445;BME280;57902;49.638;11.070;2023-11-22T06:12:10;99033.19;;;1.15;100.00
70445;BME280;57902;49.638;11.070;2023-11-22T06:14:36;99040.53;;;1.01;100.00
70445;BME280;57902;49.638;11.070;2023-11-22T06:17:03;99039.88;;;1.10;100.00
70445;BME280;57902;49.638;11.070;2023-11-22T06:19:29;99037.13;;;1.01;100.00
70445;BME280;57902;49.638;11.070;2023-11-22T06:21:57;99037.84;;;0.95;100.00
70445;BME280;57902;49.638;11.070;2023-11-22T06:24:23;99064.03;;;0.93;100.00
70445;BME280;57902;49.638;11.070;2023-11-22T06:26:52;99060.00;;;1.02;100.00
70445;BME280;57902;49.638;11.070;2023-11-22T06:29:18;99059.03;;;0.96;100.00
70445;BME280;57902;49.638;11.070;2023-11-22T06:31:46;99071.72;;;0.96;100.00
70445;BME280;57902;49.638;11.070;2023-11-22T06:34:12;99069.41;;;1.07;100.00
70445;BME280;57902;49.638;11.070;2023-11-22T06:36:39;99081.13;;;1.00;100.00
70445;BME280;57902;49.638;11.070;2023-11-22T06:39:05;99085.34;;;1.01;100.00
70445;BME280;57902;49.638;11.070;2023-11-22T06:41:32;99080.22;;;0.98;100.00
70445;BME280;57902;49.638;11.070;2023-11-22T06:43:59;99080.22;;;0.98;100.00
70445;BME280;57902;49.638;11.070;2023-11-22T06:46:25;99083.94;;;1.14;100.00
70445;BME280;57902;49.638;11.070;2023-11-22T06:48:52;99088.88;;;1.06;100.00
70445;BME280;57902;49.638;11.070;2023-11-22T06:51:19;99087.81;;;0.98;100.00
70445;BME280;57902;49.638;11.070;2023-11-22T06:53:46;99088.66;;;0.97;100.00
70445;BME280;57902;49.638;11.070;2023-11-22T06:56:13;99096.34;;;1.00;100.00
70445;BME280;57902;49.638;11.070;2023-11-22T06:58:39;99094.63;;;0.99;100.00
70445;BME280;57902;49.638;11.070;2023-11-22T07:01:06;99096.47;;;1.06;100.00
70445;BME280;57902;49.638;11.070;2023-11-22T07:03:33;99096.59;;;1.12;100.00
70445;BME280;57902;49.638;11.070;2023-11-22T07:06:00;99089.06;;;1.15;100.00
70445;BME280;57902;49.638;11.070;2023-11-22T07:08:27;99099.16;;;1.12;100.00
70445;BME280;57902;49.638;11.070;2023-11-22T07:10:54;99093.84;;;1.01;100.00
70445;BME280;57902;49.638;11.070;2023-11-22T07:13:23;99097.34;;;1.08;100.00
70445;BME280;57902;49.638;11.070;2023-11-22T07:15:50;99097.13;;;0.97;100.00
70445;BME280;57902;49.638;11.070;2023-11-22T07:18:18;99108.03;;;0.93;100.00
70445;BME280;57902;49.638;11.070;2023-11-22T07:20:44;99118.44;;;1.04;100.00
70445;BME280;57902;49.638;11.070;2023-11-22T07:23:11;99124.69;;;1.20;100.00
70445;BME280;57902;49.638;11.070;2023-11-22T07:25:40;99120.28;;;1.11;100.00
70445;BME280;57902;49.638;11.070;2023-11-22T07:28:08;99127.16;;;1.17;100.00
70445;BME280;57902;49.638;11.070;2023-11-22T07:30:35;99126.22;;;1.12;100.00
70445;BME280;57902;49.638;11.070;2023-11-22T07:33:05;99128.06;;;1.19;99.91
70445;BME280;57902;49.638;11.070;2023-11-22T07:35:33;99132.72;;;0.99;99.91
70445;BME280;57902;49.638;11.070;2023-11-22T07:37:59;99134.47;;;1.01;100.00
70445;BME280;57902;49.638;11.070;2023-11-22T07:40:26;99140.38;;;1.00;100.00
70445;BME280;57902;49.638;11.070;2023-11-22T07:42:52;99137.63;;;0.91;99.61
70445;BME280;57902;49.638;11.070;2023-11-22T07:45:21;99141.34;;;1.07;100.00
70445;BME280;57902;49.638;11.070;2023-11-22T07:47:48;99146.28;;;1.01;99.98
70445;BME280;57902;49.638;11.070;2023-11-22T07:50:15;99147.91;;;0.97;98.38
70445;BME280;57902;49.638;11.070;2023-11-22T07:52:42;99156.31;;;0.95;99.87
70445;BME280;57902;49.638;11.070;2023-11-22T07:55:08;99156.25;;;0.92;97.75
70445;BME280;57902;49.638;11.070;2023-11-22T07:57:37;99164.69;;;0.92;98.89
70445;BME280;57902;49.638;11.070;2023-11-22T08:00:06;99165.81;;;1.03;98.93
70445;BME280;57902;49.638;11.070;2023-11-22T08:02:34;99163.31;;;1.05;97.90
70445;BME280;57902;49.638;11.070;2023-11-22T08:05:04;99171.97;;;1.13;97.96
70445;BME280;57902;49.638;11.070;2023-11-22T08:07:35;99175.72;;;0.91;96.28
70445;BME280;57902;49.638;11.070;2023-11-22T08:10:07;99172.34;;;0.94;97.44
70445;BME280;57902;49.638;11.070;2023-11-22T08:12:48;99168.00;;;0.88;96.34
70445;BME280;57902;49.638;11.070;2023-11-22T08:15:16;99169.06;;;0.98;96.82
70445;BME280;57902;49.638;11.070;2023-11-22T08:17:46;99170.00;;;1.01;96.62
70445;BME280;57902;49.638;11.070;2023-11-22T08:20:13;99179.78;;;0.86;95.67
70445;BME280;57902;49.638;11.070;2023-11-22T08:22:44;99185.09;;;0.95;95.65
70445;BME280;57902;49.638;11.070;2023-11-22T08:25:12;99185.31;;;1.04;95.56
70445;BME280;57902;49.638;11.070;2023-11-22T08:27:40;99177.88;;;1.12;94.76
70445;BME280;57902;49.638;11.070;2023-11-22T08:30:08;99191.88;;;1.33;93.76
70445;BME280;57902;49.638;11.070;2023-11-22T08:32:40;99193.31;;;1.21;94.19
70445;BME280;57902;49.638;11.070;2023-11-22T08:35:08;99191.06;;;1.34;94.26
70445;BME280;57902;49.638;11.070;2023-11-22T08:37:35;99178.72;;;1.13;94.15
70445;BME280;57902;49.638;11.070;2023-11-22T08:40:06;99188.56;;;0.99;95.51
70445;BME280;57902;49.638;11.070;2023-11-22T08:42:34;99183.56;;;1.02;95.77
70445;BME280;57902;49.638;11.070;2023-11-22T08:45:02;99188.22;;;0.85;94.72
70445;BME280;57902;49.638;11.070;2023-11-22T08:47:29;99190.28;;;1.00;95.65
70445;BME280;57902;49.638;11.070;2023-11-22T08:49:57;99195.31;;;0.98;95.28
70445;BME280;57902;49.638;11.070;2023-11-22T08:52:25;99198.97;;;1.10;95.19
70445;BME280;57902;49.638;11.070;2023-11-22T08:54:51;99200.53;;;1.03;95.31
70445;BME280;57902;49.638;11.070;2023-11-22T08:57:18;99205.53;;;1.00;94.40
70445;BME280;57902;49.638;11.070;2023-11-22T08:59:45;99203.41;;;1.18;94.14
70445;BME280;57902;49.638;11.070;2023-11-22T09:02:12;99198.28;;;1.17;94.87
70445;BME280;57902;49.638;11.070;2023-11-22T09:04:39;99211.00;;;1.18;92.67
70445;BME280;57902;49.638;11.070;2023-11-22T09:07:08;99211.06;;;1.20;93.21
70445;BME280;57902;49.638;11.070;2023-11-22T09:09:36;99209.03;;;1.05;92.89
70445;BME280;57902;49.638;11.070;2023-11-22T09:12:03;99217.84;;;0.84;93.48
70445;BME280;57902;49.638;11.070;2023-11-22T09:14:31;99211.72;;;1.13;92.23
70445;BME280;57902;49.638;11.070;2023-11-22T09:16:57;99212.25;;;1.36;90.69
70445;BME280;57902;49.638;11.070;2023-11-22T09:19:24;99203.88;;;1.40;89.92
70445;BME280;57902;49.638;11.070;2023-11-22T09:21:54;99199.69;;;1.04;92.11
70445;BME280;57902;49.638;11.070;2023-11-22T09:24:21;99200.75;;;1.14;91.30
70445;BME280;57902;49.638;11.070;2023-11-22T09:26:47;99203.31;;;1.15;90.61
70445;BME280;57902;49.638;11.070;2023-11-22T09:29:14;99206.50;;;1.07;90.35
70445;BME280;57902;49.638;11.070;2023-11-22T09:31:40;99207.59;;;1.16;92.52
70445;BME280;57902;49.638;11.070;2023-11-22T09:34:12;99209.31;;;1.19;92.22
70445;BME280;57902;49.638;11.070;2023-11-22T09:36:39;99203.53;;;1.25;92.30
70445;BME280;57902;49.638;11.070;2023-11-22T09:39:06;99212.25;;;1.36;92.64
70445;BME280;57902;49.638;11.070;2023-11-22T09:41:36;99212.06;;;1.27;92.55
70445;BME280;57902;49.638;11.070;2023-11-22T09:44:03;99210.81;;;1.47;90.96
70445;BME280;57902;49.638;11.070;2023-11-22T09:46:30;99221.03;;;1.50;90.20
70445;BME280;57902;49.638;11.070;2023-11-22T09:49:02;99232.94;;;1.51;91.06
70445;BME280;57902;49.638;11.070;2023-11-22T09:51:32;99240.19;;;1.74;88.22
70445;BME280;57902;49.638;11.070;2023-11-22T09:54:04;99248.38;;;1.61;88.52
70445;BME280;57902;49.638;11.070;2023-11-22T09:56:34;99259.53;;;1.67;89.23
70445;BME280;57902;49.638;11.070;2023-11-22T09:59:04;99265.19;;;1.55;87.89
70445;BME280;57902;49.638;11.070;2023-11-22T10:01:30;99261.31;;;1.71;86.30
70445;BME280;57902;49.638;11.070;2023-11-22T10:03:58;99252.53;;;1.57;86.51
70445;BME280;57902;49.638;11.070;2023-11-22T10:06:26;99264.28;;;1.52;87.49
70445;BME280;57902;49.638;11.070;2023-11-22T10:08:52;99267.38;;;1.38;89.37
70445;BME280;57902;49.638;11.070;2023-11-22T10:11:20;99259.16;;;1.50;89.22
70445;BME280;57902;49.638;11.070;2023-11-22T10:13:48;99269.50;;;1.21;90.43
70445;BME280;57902;49.638;11.070;2023-11-22T10:16:17;99266.28;;;1.29;92.55
70445;BME280;57902;49.638;11.070;2023-11-22T10:18:48;99265.06;;;1.49;89.69
70445;BME280;57902;49.638;11.070;2023-11-22T10:21:23;99272.22;;;1.29;91.32
70445;BME280;57902;49.638;11.070;2023-11-22T10:24:00;99269.03;;;1.38;91.84
70445;BME280;57902;49.638;11.070;2023-11-22T10:26:28;99262.19;;;1.34;91.41
70445;BME280;57902;49.638;11.070;2023-11-22T10:28:56;99263.03;;;1.34;91.15
70445;BME280;57902;49.638;11.070;2023-11-22T10:31:24;99267.97;;;1.28;90.71
70445;BME280;57902;49.638;11.070;2023-11-22T10:33:51;99274.28;;;1.44;91.48
70445;BME280;57902;49.638;11.070;2023-11-22T10:36:19;99278.78;;;1.56;89.58
70445;BME280;57902;49.638;11.070;2023-11-22T10:38:47;99272.81;;;1.55;91.07
70445;BME280;57902;49.638;11.070;2023-11-22T10:41:14;99263.50;;;1.54;90.01
70445;BME280;57902;49.638;11.070;2023-11-22T10:43:41;99252.81;;;1.69;89.35
70445;BME280;57902;49.638;11.070;2023-11-22T10:46:12;99253.53;;;1.64;89.80
70445;BME280;57902;49.638;11.070;2023-11-22T10:48:40;99261.00;;;1.56;88.96
70445;BME280;57902;49.638;11.070;2023-11-22T10:51:12;99257.59;;;1.57;90.58
70445;BME280;57902;49.638;11.070;2023-11-22T10:53:47;99246.91;;;1.70;88.85
70445;BME280;57902;49.638;11.070;2023-11-22T10:56:19;99244.19;;;1.63;89.60
70445;BME280;57902;49.638;11.070;2023-11-22T10:58:50;99254.16;;;1.53;90.64
70445;BME280;57902;49.638;11.070;2023-11-22T11:01:24;99245.50;;;1.47;90.14
70445;BME280;57902;49.638;11.070;2023-11-22T11:04:24;99252.25;;;1.45;89.28
70445;BME280;57902;49.638;11.070;2023-11-22T11:06:55;99262.53;;;1.49;90.57
70445;BME280;57902;49.638;11.070;2023-11-22T11:09:24;99271.56;;;1.38;89.30
70445;BME280;57902;49.638;11.070;2023-11-22T11:11:56;99272.59;;;1.45;89.03
70445;BME280;57902;49.638;11.070;2023-11-22T11:14:24;99267.53;;;1.84;86.66
70445;BME280;57902;49.638;11.070;2023-11-22T11:16:51;99271.78;;;1.85;84.92
70445;BME280;57902;49.638;11.070;2023-11-22T11:19:20;99281.38;;;1.59;86.61
70445;BME280;57902;49.638;11.070;2023-11-22T11:21:48;99277.34;;;1.69;85.69
70445;BME280;57902;49.638;11.070;2023-11-22T11:24:16;99294.13;;;1.61;85.48
70445;BME280;57902;49.638;11.070;2023-11-22T11:26:47;99286.41;;;1.56;86.99
70445;BME280;57902;49.638;11.070;2023-11-22T11:29:30;99290.81;;;1.63;87.45
70445;BME280;57902;49.638;11.070;2023-11-22T11:31:58;99297.31;;;1.52;86.46
70445;BME280;57902;49.638;11.070;2023-11-22T11:34:25;99297.97;;;1.81;86.44
70445;BME280;57902;49.638;11.070;2023-11-22T11:36:55;99301.13;;;1.71;86.09
70445;BME280;57902;49.638;11.070;2023-11-22T11:39:26;99293.84;;;1.88;85.69
70445;BME280;57902;49.638;11.070;2023-11-22T11:42:08;99302.25;;;1.82;85.57
70445;BME280;57902;49.638;11.070;2023-11-22T11:45:05;99314.66;;;1.70;86.90
70445;BME280;57902;49.638;11.070;2023-11-22T11:47:33;99311.16;;;1.65;86.83
70445;BME280;57902;49.638;11.070;2023-11-22T11:50:01;99305.91;;;1.58;88.55
70445;BME280;57902;49.638;11.070;2023-11-22T11:52:29;99305.44;;;1.37;88.55
70445;BME280;57902;49.638;11.070;2023-11-22T11:54:57;99319.03;;;1.39;90.68
70445;BME280;57902;49.638;11.070;2023-11-22T11:57:25;99314.38;;;1.21;89.19
70445;BME280;57902;49.638;11.070;2023-11-22T11:59:52;99312.22;;;1.38;89.63
70445;BME280;57902;49.638;11.070;2023-11-22T12:02:21;99321.00;;;1.51;88.22
70445;BME280;57902;49.638;11.070;2023-11-22T12:04:47;99328.78;;;1.58;88.04
70445;BME280;57902;49.638;11.070;2023-11-22T12:07:14;99335.75;;;1.66;89.16
70445;BME280;57902;49.638;11.070;2023-11-22T12:09:40;99346.09;;;1.73;88.29
70445;BME280;57902;49.638;11.070;2023-11-22T12:12:07;99345.41;;;1.79;88.37
70445;BME280;57902;49.638;11.070;2023-11-22T12:14:34;99343.28;;;1.63;87.56
70445;BME280;57902;49.638;11.070;2023-11-22T12:17:00;99349.19;;;1.60;88.25
70445;BME280;57902;49.638;11.070;2023-11-22T12:19:28;99340.50;;;1.52;89.21
70445;BME280;57902;49.638;11.070;2023-11-22T12:21:57;99342.47;;;1.64;89.29
70445;BME280;57902;49.638;11.070;2023-11-22T12:24:24;99339.03;;;1.60;88.83
70445;BME280;57902;49.638;11.070;2023-11-22T12:26:50;99332.81;;;1.49;88.98
70445;BME280;57902;49.638;11.070;2023-11-22T12:29:17;99344.03;;;1.58;88.29
70445;BME280;57902;49.638;11.070;2023-11-22T12:31:49;99339.84;;;1.59;89.06
70445;BME280;57902;49.638;11.070;2023-11-22T12:34:17;99339.91;;;1.62;89.86
70445;BME280;57902;49.638;11.070;2023-11-22T12:36:45;99323.53;;;1.51;91.70
70445;BME280;57902;49.638;11.070;2023-11-22T12:39:13;99318.38;;;1.48;89.76
70445;BME280;57902;49.638;11.070;2023-11-22T12:44:18;99341.28;;;1.49;91.07
70445;BME280;57902;49.638;11.070;2023-11-22T12:46:53;99338.84;;;1.54;90.94
70445;BME280;57902;49.638;11.070;2023-11-22T12:49:27;99335.22;;;1.43;91.40
70445;BME280;57902;49.638;11.070;2023-11-22T12:51:56;99334.19;;;1.36;91.91
70445;BME280;57902;49.638;11.070;2023-11-22T12:54:25;99332.41;;;1.32;91.02
70445;BME280;57902;49.638;11.070;2023-11-22T12:56:53;99328.44;;;1.43;91.38
70445;BME280;57902;49.638;11.070;2023-11-22T12:59:27;99325.91;;;1.43;92.00
70445;BME280;57902;49.638;11.070;2023-11-22T13:01:58;99329.22;;;1.40;92.87